Terminal Aerodrome Forecast
Issued by NWS Buffalo, NY

Home | Current Version | Previous Version | Text Only | Print | Product List | Glossary On
Versions: 1 2 3 4 5 6 7 8 9 10 11 12 13 14 15 16 17 18 19 20 21 22 23 24 25
286
FTUS41 KBUF 260239 AAA
TAFROC
TAF AMD
KROC 260239Z 2603/2624 08010KT P6SM OVC012
     FM260800 08007KT P6SM VCSH OVC007
     FM261000 09007KT P6SM VCSH OVC012
     FM261500 13009KT P6SM OVC012
     FM261800 13011KT P6SM OVC025
     FM262100 14012KT P6SM BKN050
     FM262300 15012KT P6SM VCSH BKN050=

USA.gov is the U.S. government's official web portal to all federal, state and local government web resources and services.